Time,TemperatureF,DewpointF,PressureIn,WindDirection,WindDirectionDegrees,WindSpeedMPH,WindSpeedGustMPH,Humidity,HourlyPrecipIn,Conditions,Clouds,dailyrainin,SoftwareType,DateUTC
2013-03-18 01:12:00,22.0,2.0,-100.00,NNW,340,1.0,8.0,41,-99.99,,,-99.99,,2013-03-18 05:12:00,
2013-03-18 01:22:00,22.0,3.0,-100.00,WNW,295,0.0,2.0,43,-99.99,,,-99.99,,2013-03-18 05:22:00,
2013-03-18 01:32:00,22.0,2.0,-100.00,NW,315,1.0,5.0,42,-99.99,,,-99.99,,2013-03-18 05:32:00,
2013-03-18 01:43:00,22.0,0.0,-100.00,NNW,330,0.0,2.0,39,-99.99,,,-99.99,,2013-03-18 05:43:00,
2013-03-18 01:52:00,21.0,2.0,-100.00,ENE,60,1.0,5.0,43,-99.99,,,-99.99,,2013-03-18 05:52:00,
2013-03-18 02:02:00,21.0,4.0,-100.00,NNW,335,1.0,3.0,47,-99.99,,,-99.99,,2013-03-18 06:02:00,
2013-03-18 02:12:00,20.0,2.0,-100.00,North,350,1.0,3.0,45,-99.99,,,-99.99,,2013-03-18 06:12:00,
2013-03-18 02:22:00,20.0,1.0,-100.00,NNE,15,1.0,2.0,43,-99.99,,,-99.99,,2013-03-18 06:22:00,
2013-03-18 02:30:00,19.0,2.0,-100.00,NNE,15,1.0,1.0,47,-99.99,,,-99.99,,2013-03-18 06:30:00,
2013-03-18 02:32:00,20.0,3.0,-100.00,NW,315,1.0,7.0,47,-99.99,,,-99.99,,2013-03-18 06:32:00,
2013-03-18 02:42:00,20.0,2.0,-100.00,North,0,1.0,5.0,45,-99.99,,,-99.99,,2013-03-18 06:42:00,
2013-03-18 02:52:00,20.0,4.0,-100.00,NNW,330,0.0,2.0,49,-99.99,,,-99.99,,2013-03-18 06:52:00,
2013-03-18 03:02:00,19.0,3.0,-100.00,WNW,295,1.0,2.0,50,-99.99,,,-99.99,,2013-03-18 07:02:00,
2013-03-18 03:13:00,19.0,2.0,-100.00,NNE,15,1.0,1.0,47,-99.99,,,-99.99,,2013-03-18 07:13:00,
2013-03-18 03:23:00,19.0,2.0,-100.00,NNE,15,1.0,1.0,47,-99.99,,,-99.99,,2013-03-18 07:23:00,
2013-03-18 04:22:00,18.0,3.0,-100.00,NNE,25,0.0,3.0,53,-99.99,,,-99.99,,2013-03-18 08:22:00,
2013-03-18 04:32:00,17.0,2.0,-100.00,West,260,0.0,3.0,50,-99.99,,,-99.99,,2013-03-18 08:32:00,
2013-03-18 04:43:00,17.0,4.0,-100.00,WNW,285,0.0,1.0,54,-99.99,,,-99.99,,2013-03-18 08:43:00,
2013-03-18 04:52:00,17.0,5.0,-100.00,NE,50,0.0,1.0,60,-99.99,,,-99.99,,2013-03-18 08:52:00,
2013-03-18 05:02:00,17.0,6.0,-100.00,West,265,0.0,1.0,61,-99.99,,,-99.99,,2013-03-18 09:02:00,
2013-03-18 05:10:00,15.0,4.0,-100.00,North,350,0.0,2.0,61,-99.99,,,-99.99,,2013-03-18 09:10:00,
2013-03-18 05:13:00,16.0,4.0,-100.00,NNE,25,0.0,1.0,57,-99.99,,,-99.99,,2013-03-18 09:13:00,
2013-03-18 05:22:00,16.0,3.0,-100.00,WNW,290,0.0,2.0,57,-99.99,,,-99.99,,2013-03-18 09:22:00,
2013-03-18 05:33:00,15.0,4.0,-100.00,NNW,335,0.0,1.0,59,-99.99,,,-99.99,,2013-03-18 09:33:00,
2013-03-18 05:43:00,15.0,4.0,-100.00,WSW,250,0.0,1.0,61,-99.99,,,-99.99,,2013-03-18 09:43:00,
2013-03-18 05:53:00,15.0,4.0,-100.00,North,350,0.0,2.0,61,-99.99,,,-99.99,,2013-03-18 09:53:00,
2013-03-18 06:04:00,15.0,4.0,-100.00,North,350,0.0,2.0,61,-99.99,,,-99.99,,2013-03-18 10:04:00,
2013-03-18 07:13:00,15.0,4.0,-100.00,NNW,335,1.0,3.0,61,-99.99,,,-99.99,,2013-03-18 11:13:00,
2013-03-18 07:22:00,15.0,5.0,-100.00,North,10,2.0,5.0,63,-99.99,,,-99.99,,2013-03-18 11:22:00,
2013-03-18 07:32:00,15.0,5.0,-100.00,North,10,2.0,5.0,63,-99.99,,,-99.99,,2013-03-18 11:32:00,
2013-03-18 07:42:00,14.0,5.0,-100.00,West,280,0.0,1.0,67,-99.99,,,-99.99,,2013-03-18 11:42:00,
2013-03-18 07:53:00,14.0,5.0,-100.00,West,280,0.0,1.0,67,-99.99,,,-99.99,,2013-03-18 11:53:00,
2013-03-18 08:03:00,14.0,5.0,-100.00,WNW,285,0.0,1.0,68,-99.99,,,-99.99,,2013-03-18 12:03:00,
2013-03-18 08:13:00,14.0,5.0,-100.00,WNW,285,0.0,1.0,68,-99.99,,,-99.99,,2013-03-18 12:13:00,
2013-03-18 08:22:00,15.0,7.0,-100.00,NW,315,0.0,2.0,68,-99.99,,,-99.99,,2013-03-18 12:22:00,
2013-03-18 08:33:00,16.0,7.0,-100.00,NE,45,1.0,2.0,67,-99.99,,,-99.99,,2013-03-18 12:33:00,
2013-03-18 08:43:00,19.0,7.0,-100.00,West,260,1.0,2.0,57,-99.99,,,-99.99,,2013-03-18 12:43:00,
2013-03-18 08:52:00,22.0,5.0,-100.00,SW,230,0.0,3.0,48,-99.99,,,-99.99,,2013-03-18 12:52:00,
2013-03-18 09:00:00,26.0,1.0,-100.00,NNE,15,1.0,8.0,34,-99.99,,,-99.99,,2013-03-18 13:00:00,
2013-03-18 09:03:00,22.0,2.0,-100.00,NNW,330,1.0,3.0,41,-99.99,,,-99.99,,2013-03-18 13:03:00,
2013-03-18 09:12:00,24.0,2.0,-100.00,West,265,1.0,3.0,38,-99.99,,,-99.99,,2013-03-18 13:12:00,
2013-03-18 09:22:00,24.0,2.0,-100.00,NW,315,1.0,3.0,38,-99.99,,,-99.99,,2013-03-18 13:22:00,
2013-03-18 09:33:00,25.0,3.0,-100.00,West,275,1.0,5.0,38,-99.99,,,-99.99,,2013-03-18 13:33:00,
2013-03-18 09:42:00,26.0,1.0,-100.00,NNE,15,1.0,8.0,34,-99.99,,,-99.99,,2013-03-18 13:42:00,
2013-03-18 09:52:00,26.0,1.0,-100.00,NNE,15,1.0,8.0,34,-99.99,,,-99.99,,2013-03-18 13:52:00,
2013-03-18 10:12:00,27.0,1.0,-100.00,NNE,25,3.0,6.0,32,-99.99,,,-99.99,,2013-03-18 14:12:00,
2013-03-18 10:22:00,27.0,2.0,-100.00,North,350,2.0,6.0,32,-99.99,,,-99.99,,2013-03-18 14:22:00,
2013-03-18 10:32:00,28.0,0.0,-100.00,West,275,1.0,3.0,29,-99.99,,,-99.99,,2013-03-18 14:32:00,
2013-03-18 10:42:00,28.0,0.0,-100.00,NW,315,2.0,5.0,29,-99.99,,,-99.99,,2013-03-18 14:42:00,
2013-03-18 10:52:00,28.0,0.0,-100.00,NNE,30,5.0,7.0,29,-99.99,,,-99.99,,2013-03-18 14:52:00,
2013-03-18 11:02:00,29.0,0.0,-100.00,SSW,205,1.0,5.0,27,-99.99,,,-99.99,,2013-03-18 15:02:00,
2013-03-18 11:10:00,31.0,0.0,-100.00,ESE,120,3.0,7.0,26,-99.99,,,-99.99,,2013-03-18 15:10:00,
2013-03-18 11:12:00,30.0,0.0,-100.00,NNW,335,1.0,6.0,27,-99.99,,,-99.99,,2013-03-18 15:12:00,
2013-03-18 11:23:00,31.0,0.0,-100.00,West,265,0.0,5.0,26,-99.99,,,-99.99,,2013-03-18 15:23:00,
2013-03-18 11:33:00,30.0,1.0,-100.00,WSW,250,1.0,5.0,28,-99.99,,,-99.99,,2013-03-18 15:33:00,
2013-03-18 11:43:00,30.0,-1.0,-100.00,SSW,195,2.0,6.0,26,-99.99,,,-99.99,,2013-03-18 15:43:00,
2013-03-18 11:52:00,31.0,0.0,-100.00,ESE,120,3.0,7.0,26,-99.99,,,-99.99,,2013-03-18 15:52:00,
2013-03-18 12:03:00,31.0,0.0,-100.00,ESE,120,3.0,7.0,26,-99.99,,,-99.99,,2013-03-18 16:03:00,
2013-03-18 14:13:00,36.0,1.0,-100.00,NW,325,1.0,7.0,22,-99.99,,,-99.99,,2013-03-18 18:13:00,
2013-03-18 14:22:00,36.0,1.0,-100.00,West,260,1.0,6.0,22,-99.99,,,-99.99,,2013-03-18 18:22:00,
2013-03-18 14:32:00,37.0,1.0,-100.00,SW,220,2.0,5.0,21,-99.99,,,-99.99,,2013-03-18 18:32:00,
2013-03-18 14:42:00,37.0,2.0,-100.00,SW,215,1.0,5.0,22,-99.99,,,-99.99,,2013-03-18 18:42:00,
2013-03-18 14:52:00,37.0,1.0,-100.00,ESE,115,3.0,8.0,21,-99.99,,,-99.99,,2013-03-18 18:52:00,
2013-03-18 15:03:00,38.0,0.0,-100.00,North,10,2.0,6.0,20,-99.99,,,-99.99,,2013-03-18 19:03:00,
2013-03-18 15:12:00,38.0,0.0,-100.00,WSW,255,2.0,5.0,20,-99.99,,,-99.99,,2013-03-18 19:12:00,
2013-03-18 15:22:00,38.0,0.0,-100.00,WSW,250,2.0,10.0,20,-99.99,,,-99.99,,2013-03-18 19:22:00,
2013-03-18 15:33:00,39.0,0.0,-100.00,ENE,75,2.0,3.0,19,-99.99,,,-99.99,,2013-03-18 19:33:00,
2013-03-18 15:42:00,38.0,1.0,-100.00,SE,145,3.0,8.0,20,-99.99,,,-99.99,,2013-03-18 19:42:00,
2013-03-18 15:52:00,39.0,1.0,-100.00,SE,125,2.0,10.0,20,-99.99,,,-99.99,,2013-03-18 19:52:00,
2013-03-18 16:23:00,38.0,-1.0,-100.00,SSW,195,3.0,10.0,19,-99.99,,,-99.99,,2013-03-18 20:23:00,
2013-03-18 16:42:00,38.0,0.0,-100.00,SSE,165,2.0,5.0,19,-99.99,,,-99.99,,2013-03-18 20:42:00,
2013-03-18 16:52:00,38.0,1.0,-100.00,SW,225,2.0,5.0,20,-99.99,,,-99.99,,2013-03-18 20:52:00,
2013-03-18 17:02:00,38.0,0.0,-100.00,WSW,250,2.0,6.0,19,-99.99,,,-99.99,,2013-03-18 21:02:00,
2013-03-18 17:10:00,38.0,1.0,-100.00,East,90,2.0,6.0,21,-99.99,,,-99.99,,2013-03-18 21:10:00,
2013-03-18 17:12:00,38.0,-1.0,-100.00,West,280,1.0,5.0,18,-99.99,,,-99.99,,2013-03-18 21:12:00,
2013-03-18 17:22:00,38.0,-1.0,-100.00,SSW,210,2.0,5.0,18,-99.99,,,-99.99,,2013-03-18 21:22:00,
2013-03-18 17:33:00,38.0,-1.0,-100.00,SE,125,3.0,7.0,19,-99.99,,,-99.99,,2013-03-18 21:33:00,
2013-03-18 17:43:00,38.0,0.0,-100.00,ENE,60,2.0,8.0,20,-99.99,,,-99.99,,2013-03-18 21:43:00,
2013-03-18 17:52:00,38.0,1.0,-100.00,East,90,2.0,6.0,21,-99.99,,,-99.99,,2013-03-18 21:52:00,
2013-03-18 18:03:00,38.0,1.0,-100.00,East,90,2.0,6.0,21,-99.99,,,-99.99,,2013-03-18 22:03:00,
2013-03-18 20:03:00,34.0,18.0,-100.00,SE,130,3.0,8.0,53,-99.99,,,-99.99,,2013-03-19 00:03:00,
2013-03-18 20:12:00,33.0,19.0,-100.00,SSE,150,5.0,9.0,55,-99.99,,,-99.99,,2013-03-19 00:12:00,
2013-03-18 20:23:00,33.0,19.0,-100.00,ESE,110,5.0,10.0,56,-99.99,,,-99.99,,2013-03-19 00:23:00,
2013-03-18 20:32:00,33.0,19.0,-100.00,ESE,110,5.0,10.0,56,-99.99,,,-99.99,,2013-03-19 00:32:00,
2013-03-18 23:10:00,29.0,25.0,-100.00,SSE,160,5.0,7.0,83,-99.99,,,-99.99,,2013-03-19 03:10:00,
2013-03-18 23:53:00,29.0,25.0,-100.00,SSE,160,5.0,7.0,83,-99.99,,,-99.99,,2013-03-19 03:53:00,